createdAt,value
2022-09-28T00:02:23.033Z,10.69
2022-09-28T00:04:50.702Z,10.66
2022-09-28T00:07:18.344Z,10.67
2022-09-28T00:09:45.958Z,10.68
2022-09-28T00:12:13.638Z,10.68
2022-09-28T00:14:42.919Z,10.66
2022-09-28T00:17:12.124Z,10.68
2022-09-28T00:19:41.203Z,10.68
2022-09-28T00:22:08.853Z,10.65
2022-09-28T00:24:36.488Z,10.66
2022-09-28T00:27:04.193Z,10.65
2022-09-28T00:29:33.280Z,10.65
2022-09-28T00:32:03.410Z,10.63
2022-09-28T00:34:33.230Z,10.64
2022-09-28T00:37:03.482Z,10.63
2022-09-28T00:39:31.622Z,10.62
2022-09-28T00:42:00.104Z,10.61
2022-09-28T00:44:46.905Z,10.61
2022-09-28T00:47:39.052Z,10.59
2022-09-28T00:50:10.257Z,10.53
2022-09-28T00:52:42.186Z,10.60
2022-09-28T00:55:13.324Z,10.57
2022-09-28T00:57:42.809Z,10.56
2022-09-28T01:00:11.843Z,10.53
2022-09-28T01:02:39.442Z,10.53
2022-09-28T01:05:08.905Z,10.54
2022-09-28T01:07:36.829Z,10.52
2022-09-28T01:10:06.894Z,10.53
2022-09-28T01:12:34.547Z,10.52
2022-09-28T01:15:02.505Z,10.52
2022-09-28T01:17:37.605Z,10.52
2022-09-28T01:20:27.966Z,10.51
2022-09-28T01:23:51.166Z,10.48
2022-09-28T01:26:58.196Z,10.45
2022-09-28T01:29:36.012Z,10.45
2022-09-28T01:32:12.313Z,10.46
2022-09-28T01:34:46.290Z,10.46
2022-09-28T01:37:16.272Z,10.45
2022-09-28T01:39:46.949Z,10.45
2022-09-28T01:42:18.790Z,10.44
2022-09-28T01:44:50.533Z,10.44
2022-09-28T01:47:21.755Z,10.41
2022-09-28T01:49:52.893Z,10.40
2022-09-28T01:52:23.540Z,10.41
2022-09-28T01:54:56.206Z,10.42
2022-09-28T01:57:26.915Z,10.39
2022-09-28T01:59:59.806Z,10.37
2022-09-28T02:02:32.457Z,10.35
2022-09-28T02:05:04.372Z,10.33
2022-09-28T02:07:38.045Z,10.30
2022-09-28T02:10:10.376Z,10.34
2022-09-28T02:12:41.701Z,10.35
2022-09-28T02:15:15.375Z,10.34
2022-09-28T02:17:43.327Z,10.32
2022-09-28T02:20:11.936Z,10.32
2022-09-28T02:22:42.976Z,10.32
2022-09-28T02:25:13.001Z,10.26
2022-09-28T02:27:43.825Z,10.29
2022-09-28T02:30:13.406Z,10.27
2022-09-28T02:32:43.593Z,10.22
2022-09-28T02:35:15.805Z,10.20
2022-09-28T02:37:43.551Z,10.19
2022-09-28T02:40:14.951Z,10.21
2022-09-28T02:42:51.743Z,10.21
2022-09-28T02:45:28.980Z,10.22
2022-09-28T02:48:04.428Z,10.21
2022-09-28T02:50:38.478Z,10.24
2022-09-28T02:53:23.200Z,10.23
2022-09-28T02:56:01.303Z,10.21
2022-09-28T02:58:36.807Z,10.18
2022-09-28T03:01:13.637Z,10.19
2022-09-28T03:03:48.122Z,10.22
2022-09-28T03:06:21.529Z,10.21
2022-09-28T03:08:54.043Z,10.19
2022-09-28T03:11:24.426Z,10.11
2022-09-28T03:13:52.283Z,10.16
2022-09-28T03:16:21.460Z,10.14
2022-09-28T03:18:49.355Z,10.07
2022-09-28T03:21:17.354Z,10.10
2022-09-28T03:23:45.129Z,10.11
2022-09-28T03:26:13.702Z,10.10
2022-09-28T03:28:41.854Z,10.10
2022-09-28T03:31:09.799Z,10.09
2022-09-28T03:33:38.935Z,10.10
2022-09-28T03:36:08.626Z,10.08
2022-09-28T03:38:36.409Z,10.05
2022-09-28T03:41:04.262Z,10.03
2022-09-28T03:43:32.008Z,10.06
2022-09-28T03:46:01.352Z,9.99
2022-09-28T03:48:32.708Z,10.02
2022-09-28T03:51:03.463Z,10.03
2022-09-28T03:53:31.480Z,10.00
2022-09-28T03:56:03.836Z,9.98
2022-09-28T03:58:31.550Z,9.93
2022-09-28T04:01:03.344Z,9.90
2022-09-28T04:03:31.185Z,9.82
2022-09-28T04:05:59.337Z,9.82
2022-09-28T04:08:29.182Z,9.82
2022-09-28T04:10:57.573Z,9.81
2022-09-28T04:13:25.598Z,9.79
2022-09-28T04:15:54.012Z,9.79
2022-09-28T04:18:22.083Z,9.80
2022-09-28T04:20:49.761Z,9.78
2022-09-28T04:23:17.529Z,9.73
2022-09-28T04:25:53.450Z,9.68
2022-09-28T04:28:38.496Z,9.62
2022-09-28T04:31:10.154Z,9.64
2022-09-28T04:33:37.871Z,9.63
2022-09-28T04:36:06.034Z,9.62
2022-09-28T04:38:51.908Z,9.64
2022-09-28T04:41:22.850Z,9.64
2022-09-28T04:43:50.714Z,9.65
2022-09-28T04:46:18.478Z,9.64
2022-09-28T04:48:46.477Z,9.67
2022-09-28T04:51:14.277Z,9.66
2022-09-28T04:53:41.934Z,9.63
2022-09-28T04:56:12.134Z,9.62
2022-09-28T04:58:41.442Z,9.63
2022-09-28T05:01:12.499Z,9.58
2022-09-28T05:03:40.247Z,9.62
2022-09-28T05:06:08.246Z,9.61
2022-09-28T05:08:36.501Z,9.59
2022-09-28T05:11:05.760Z,9.59
2022-09-28T05:13:35.616Z,9.61
2022-09-28T05:16:05.733Z,9.61
2022-09-28T05:18:33.729Z,9.61
2022-09-28T05:21:01.973Z,9.61
2022-09-28T05:23:29.707Z,9.60
2022-09-28T05:25:57.365Z,9.58
2022-09-28T05:28:28.402Z,9.57
2022-09-28T05:30:59.862Z,9.53
2022-09-28T05:33:29.543Z,9.52
2022-09-28T05:36:01.102Z,9.51
2022-09-28T05:38:29.857Z,9.50
2022-09-28T05:40:57.967Z,9.49
2022-09-28T05:43:25.708Z,9.50
2022-09-28T05:45:55.819Z,9.51
2022-09-28T05:48:23.880Z,9.51
2022-09-28T05:50:54.045Z,9.53
2022-09-28T05:53:21.797Z,9.50
2022-09-28T05:55:49.495Z,9.52
2022-09-28T05:58:17.487Z,9.57
2022-09-28T06:00:45.292Z,9.58
2022-09-28T06:03:14.862Z,9.61
2022-09-28T06:05:42.754Z,9.61
2022-09-28T06:08:11.985Z,9.60
2022-09-28T06:10:40.229Z,9.62
2022-09-28T06:13:08.496Z,9.62
2022-09-28T06:15:37.886Z,9.62
2022-09-28T06:18:06.838Z,9.61
2022-09-28T06:20:36.517Z,9.54
2022-09-28T06:23:04.549Z,9.63
2022-09-28T06:25:33.614Z,9.63
2022-09-28T06:28:02.466Z,9.63
2022-09-28T06:30:33.483Z,9.63
2022-09-28T06:33:02.284Z,9.64
2022-09-28T06:35:31.594Z,9.63
2022-09-28T06:37:59.806Z,9.62
2022-09-28T06:40:28.001Z,9.60
2022-09-28T06:42:58.299Z,9.64
2022-09-28T06:45:26.544Z,9.59
2022-09-28T06:47:56.594Z,9.62
2022-09-28T06:50:24.795Z,9.63
2022-09-28T06:52:53.860Z,9.64
2022-09-28T06:55:21.814Z,9.62
2022-09-28T06:58:00.171Z,9.63
2022-09-28T07:00:28.792Z,9.61
2022-09-28T07:02:56.518Z,9.61
2022-09-28T07:05:27.253Z,9.59
2022-09-28T07:07:56.452Z,9.61
2022-09-28T07:10:24.748Z,9.62
2022-09-28T07:12:52.894Z,9.64
2022-09-28T07:15:22.658Z,9.66
2022-09-28T07:17:59.678Z,9.66
2022-09-28T07:20:30.415Z,9.67
2022-09-28T07:23:08.817Z,9.68
2022-09-28T07:25:45.443Z,9.69
2022-09-28T07:28:13.322Z,9.72
2022-09-28T07:30:44.255Z,9.76
2022-09-28T07:33:14.519Z,9.80
2022-09-28T07:35:43.007Z,9.82
2022-09-28T07:38:12.361Z,9.85
2022-09-28T07:40:57.904Z,9.84
2022-09-28T07:43:25.626Z,9.82
2022-09-28T07:45:55.659Z,9.86
2022-09-28T07:48:23.840Z,9.91
2022-09-28T07:50:52.271Z,9.90
2022-09-28T07:53:20.253Z,9.96
2022-09-28T07:55:52.130Z,9.99
2022-09-28T07:58:20.706Z,9.99
2022-09-28T08:00:49.079Z,10.00
2022-09-28T08:03:18.911Z,9.99
2022-09-28T08:05:47.408Z,9.99
2022-09-28T08:08:15.367Z,9.99
2022-09-28T08:10:46.807Z,10.01
2022-09-28T08:13:16.301Z,10.06
2022-09-28T08:15:44.134Z,10.07
2022-09-28T08:18:11.908Z,10.12
2022-09-28T08:20:58.452Z,10.17
2022-09-28T08:23:26.154Z,10.21
2022-09-28T08:25:55.013Z,10.23
2022-09-28T08:28:23.794Z,10.31
2022-09-28T08:30:51.916Z,10.33
2022-09-28T08:33:21.212Z,10.37
2022-09-28T08:35:57.483Z,10.41
2022-09-28T08:38:25.453Z,10.39
2022-09-28T08:41:01.354Z,10.47
2022-09-28T08:43:54.477Z,10.46
2022-09-28T08:46:27.032Z,10.53
2022-09-28T08:49:20.761Z,10.55
2022-09-28T08:51:51.470Z,10.56
2022-09-28T08:54:27.095Z,10.60
2022-09-28T08:56:56.926Z,10.61
2022-09-28T08:59:26.617Z,10.63
2022-09-28T09:01:58.110Z,10.64
2022-09-28T09:04:25.986Z,10.63
2022-09-28T09:07:07.166Z,10.65
2022-09-28T09:09:44.333Z,10.67
2022-09-28T09:12:18.344Z,10.73
2022-09-28T09:15:08.737Z,10.77
2022-09-28T09:17:43.981Z,10.81
2022-09-28T09:20:20.164Z,10.83
2022-09-28T09:23:00.000Z,10.85
2022-09-28T09:25:29.694Z,10.83
2022-09-28T09:28:12.287Z,10.90
2022-09-28T09:30:45.693Z,10.81
2022-09-28T09:33:38.015Z,10.86
2022-09-28T09:36:14.890Z,10.83
2022-09-28T09:38:51.682Z,10.82
2022-09-28T09:41:27.164Z,10.88
2022-09-28T09:44:22.274Z,10.90
2022-09-28T09:46:53.570Z,10.83
2022-09-28T09:49:23.742Z,10.95
2022-09-28T09:51:54.471Z,10.98
2022-09-28T09:54:26.642Z,10.99
2022-09-28T09:56:57.572Z,10.96
2022-09-28T09:59:28.856Z,10.96
2022-09-28T10:01:57.206Z,11.05
2022-09-28T10:04:27.840Z,11.04
2022-09-28T10:07:00.193Z,11.11
2022-09-28T10:09:31.966Z,11.15
2022-09-28T10:11:59.679Z,11.13
2022-09-28T10:14:27.836Z,11.13
2022-09-28T10:16:58.264Z,11.14
2022-09-28T10:19:31.694Z,11.16
2022-09-28T10:22:01.848Z,11.19
2022-09-28T10:24:34.982Z,11.15
2022-09-28T10:27:07.327Z,11.27
2022-09-28T10:29:43.267Z,11.34
2022-09-28T10:32:23.812Z,11.36
2022-09-28T10:34:52.187Z,11.41
2022-09-28T10:37:20.432Z,11.45
2022-09-28T10:39:52.221Z,11.49
2022-09-28T10:42:22.113Z,11.52
2022-09-28T10:44:55.816Z,11.57
2022-09-28T10:48:26.040Z,11.57
2022-09-28T10:53:59.860Z,11.55
2022-09-28T10:56:29.635Z,11.56
2022-09-28T10:58:57.952Z,11.57
2022-09-28T11:01:29.606Z,11.56
2022-09-28T11:03:58.625Z,11.59
2022-09-28T11:06:28.154Z,11.65
2022-09-28T11:08:59.208Z,11.74
2022-09-28T11:11:27.097Z,11.76
2022-09-28T11:13:56.994Z,11.82
2022-09-28T11:16:28.607Z,11.79
2022-09-28T11:18:56.862Z,11.80
2022-09-28T11:21:26.617Z,11.80
2022-09-28T11:24:06.976Z,11.83
2022-09-28T11:26:40.792Z,11.82
2022-09-28T11:31:03.774Z,11.80
2022-09-28T11:33:34.032Z,11.86
2022-09-28T11:36:27.023Z,11.95
2022-09-28T11:39:00.506Z,11.99
2022-09-28T11:41:43.161Z,12.13
2022-09-28T11:44:33.371Z,12.28
2022-09-28T11:47:14.858Z,12.41
2022-09-28T11:49:46.134Z,12.55
2022-09-28T11:53:54.711Z,12.72
2022-09-28T11:56:32.517Z,12.83
2022-09-28T11:59:03.963Z,12.86
2022-09-28T12:01:36.559Z,12.96
2022-09-28T12:04:07.925Z,13.02
2022-09-28T12:06:40.442Z,13.04
2022-09-28T12:09:23.295Z,13.05
2022-09-28T12:16:37.524Z,13.06
2022-09-28T12:18:50.126Z,13.14
2022-09-28T12:21:32.685Z,13.25
2022-09-28T12:24:04.968Z,13.27
2022-09-28T12:26:37.889Z,13.27
2022-09-28T12:29:11.579Z,13.24
2022-09-28T12:31:45.246Z,13.13
2022-09-28T12:34:13.220Z,13.18
2022-09-28T12:36:47.430Z,13.19
2022-09-28T12:39:46.840Z,13.21
2022-09-28T12:42:29.142Z,13.24
2022-09-28T12:45:10.370Z,13.28
2022-09-28T12:48:11.567Z,13.32
2022-09-28T12:50:52.608Z,13.40
2022-09-28T12:53:38.850Z,13.45
2022-09-28T12:58:21.184Z,13.61
2022-09-28T13:00:53.747Z,13.64
2022-09-28T13:03:37.126Z,13.66
2022-09-28T13:06:08.348Z,13.47
2022-09-28T13:08:37.131Z,13.35
2022-09-28T13:11:08.032Z,13.27
2022-09-28T13:13:39.186Z,13.17
2022-09-28T13:16:07.631Z,13.11
2022-09-28T13:18:36.615Z,13.02
2022-09-28T13:21:05.896Z,12.95
2022-09-28T13:23:34.887Z,12.91
2022-09-28T13:26:03.237Z,12.84
2022-09-28T13:28:30.970Z,12.77
2022-09-28T13:31:00.504Z,12.73
2022-09-28T13:33:31.285Z,12.70
2022-09-28T13:35:58.704Z,12.65
2022-09-28T13:38:40.315Z,12.61
2022-09-28T13:41:12.018Z,12.58
2022-09-28T13:43:42.433Z,12.51
2022-09-28T13:46:11.505Z,12.43
2022-09-28T13:48:42.479Z,12.36
2022-09-28T13:51:31.833Z,12.31
2022-09-28T13:54:15.732Z,12.27
2022-09-28T13:56:48.302Z,12.23
2022-09-28T13:59:16.706Z,12.20
2022-09-28T14:01:46.069Z,12.19
2022-09-28T14:04:15.239Z,12.18
2022-09-28T14:06:47.464Z,12.19
2022-09-28T14:09:25.337Z,12.23
2022-09-28T14:11:56.698Z,12.29
2022-09-28T14:14:42.000Z,12.37
2022-09-28T14:17:36.537Z,12.45
2022-09-28T14:20:05.553Z,12.51
2022-09-28T14:22:34.269Z,12.55
2022-09-28T14:25:06.458Z,12.57
2022-09-28T14:27:52.009Z,12.60
2022-09-28T14:30:23.813Z,12.59
2022-09-28T14:32:55.176Z,12.58
2022-09-28T14:35:25.986Z,12.56
2022-09-28T14:38:11.267Z,12.57
2022-09-28T14:41:12.822Z,12.56
2022-09-28T14:44:13.445Z,12.60
2022-09-28T14:46:43.626Z,12.67
2022-09-28T14:49:29.062Z,12.76
2022-09-28T14:52:03.251Z,12.85
2022-09-28T14:54:35.378Z,12.87
2022-09-28T14:57:08.099Z,12.87
2022-09-28T14:59:41.727Z,12.85
2022-09-28T15:02:09.872Z,12.82
2022-09-28T15:04:39.240Z,12.85
2022-09-28T15:07:08.185Z,12.88
2022-09-28T15:09:36.499Z,12.93
2022-09-28T15:12:04.533Z,12.96
2022-09-28T15:14:33.132Z,12.98
2022-09-28T15:17:03.263Z,12.98
2022-09-28T15:19:31.307Z,12.97
2022-09-28T15:21:58.831Z,12.96
2022-09-28T15:24:28.657Z,12.93
2022-09-28T15:26:56.727Z,12.90
2022-09-28T15:29:25.866Z,12.89
2022-09-28T15:31:54.632Z,12.86
2022-09-28T15:34:45.994Z,12.85
2022-09-28T15:37:13.528Z,12.83
2022-09-28T15:39:42.366Z,12.83
2022-09-28T15:42:09.817Z,12.79
2022-09-28T15:44:37.564Z,12.78
2022-09-28T15:47:09.053Z,12.78
2022-09-28T15:49:39.051Z,12.76
2022-09-28T15:52:06.750Z,12.76
2022-09-28T15:54:36.231Z,12.76
2022-09-28T15:57:05.126Z,12.74
2022-09-28T15:59:33.272Z,12.74
2022-09-28T16:02:06.351Z,12.73
2022-09-28T16:04:37.454Z,12.72
2022-09-28T16:07:34.788Z,12.70
2022-09-28T16:10:04.718Z,12.64
2022-09-28T16:12:42.303Z,12.62
2022-09-28T16:15:14.073Z,12.59
2022-09-28T16:17:41.618Z,12.57
2022-09-28T16:20:19.252Z,12.53
2022-09-28T16:22:46.711Z,12.49
2022-09-28T16:25:17.196Z,12.46
2022-09-28T16:27:46.214Z,12.42
2022-09-28T16:30:15.467Z,12.39
2022-09-28T16:32:48.903Z,12.36
2022-09-28T16:35:18.528Z,12.33
2022-09-28T16:37:49.075Z,12.30
2022-09-28T16:40:16.825Z,12.28
2022-09-28T16:42:49.066Z,12.25
2022-09-28T16:45:19.731Z,12.23
2022-09-28T16:47:47.280Z,12.24
2022-09-28T16:50:15.627Z,12.23
2022-09-28T16:53:00.566Z,12.22
2022-09-28T16:55:40.042Z,12.22
2022-09-28T16:58:09.974Z,12.20
2022-09-28T17:00:37.488Z,12.17
2022-09-28T17:03:10.453Z,12.13
2022-09-28T17:05:40.089Z,12.11
2022-09-28T17:08:07.606Z,12.05
2022-09-28T17:10:55.744Z,11.99
2022-09-28T17:13:26.941Z,11.87
2022-09-28T17:15:54.491Z,11.73
2022-09-28T17:18:22.006Z,11.62
2022-09-28T17:20:50.137Z,11.52
2022-09-28T17:23:17.638Z,11.44
2022-09-28T17:25:45.274Z,11.40
2022-09-28T17:28:15.057Z,11.36
2022-09-28T17:30:44.000Z,11.33
2022-09-28T17:33:11.493Z,11.30
2022-09-28T17:35:39.749Z,11.28
2022-09-28T17:38:07.603Z,11.27
2022-09-28T17:40:35.141Z,11.26
2022-09-28T17:43:05.683Z,11.26
2022-09-28T17:45:33.361Z,11.26
2022-09-28T17:48:02.434Z,11.26
2022-09-28T17:50:32.330Z,11.26
2022-09-28T17:53:02.781Z,11.26
2022-09-28T17:55:31.560Z,11.26
2022-09-28T17:57:59.446Z,11.26
2022-09-28T18:00:27.880Z,11.24
2022-09-28T18:02:55.449Z,11.23
2022-09-28T18:05:24.901Z,11.24
2022-09-28T18:07:52.510Z,11.24
2022-09-28T18:10:21.281Z,11.21
2022-09-28T18:12:49.064Z,11.20
2022-09-28T18:15:16.968Z,11.19
2022-09-28T18:17:44.453Z,11.18
2022-09-28T18:20:12.946Z,11.17
2022-09-28T18:22:41.998Z,11.15
2022-09-28T18:25:09.570Z,11.17
2022-09-28T18:27:37.085Z,11.17
2022-09-28T18:30:05.089Z,11.17
2022-09-28T18:32:34.453Z,11.16
2022-09-28T18:35:01.927Z,11.16
2022-09-28T18:37:29.467Z,11.13
2022-09-28T18:39:58.763Z,11.13
2022-09-28T18:42:26.262Z,11.12
2022-09-28T18:44:53.745Z,11.10
2022-09-28T18:47:21.383Z,11.09
2022-09-28T18:49:50.554Z,11.09
2022-09-28T18:52:18.066Z,11.07
2022-09-28T18:54:46.580Z,11.05
2022-09-28T18:57:15.534Z,11.03
2022-09-28T18:59:43.123Z,11.01
2022-09-28T19:02:11.719Z,10.99
2022-09-28T19:04:39.388Z,10.98
2022-09-28T19:07:06.953Z,10.96
2022-09-28T19:09:34.445Z,10.95
2022-09-28T19:12:02.140Z,10.93
2022-09-28T19:14:31.015Z,10.91
2022-09-28T19:16:58.557Z,10.90
2022-09-28T19:19:26.059Z,10.88
2022-09-28T19:21:53.606Z,10.85
2022-09-28T19:24:21.196Z,10.83
2022-09-28T19:26:49.014Z,10.82
2022-09-28T19:29:16.641Z,10.80
2022-09-28T19:31:45.566Z,10.77
2022-09-28T19:34:14.314Z,10.76
2022-09-28T19:36:42.112Z,10.73
2022-09-28T19:39:09.635Z,10.72
2022-09-28T19:41:44.282Z,10.70
2022-09-28T19:44:13.476Z,10.69
2022-09-28T19:46:41.295Z,10.66
2022-09-28T19:49:11.088Z,10.66
2022-09-28T19:51:43.853Z,10.65
2022-09-28T19:54:30.993Z,10.63
2022-09-28T19:57:00.772Z,10.61
2022-09-28T19:59:28.712Z,10.58
2022-09-28T20:01:58.547Z,10.56
2022-09-28T20:04:27.429Z,10.54
2022-09-28T20:06:54.937Z,10.53
2022-09-28T20:09:22.345Z,10.52
2022-09-28T20:11:51.791Z,10.51
2022-09-28T20:14:19.548Z,10.49
2022-09-28T20:16:47.231Z,10.48
2022-09-28T20:19:14.767Z,10.46
2022-09-28T20:21:43.757Z,10.46
2022-09-28T20:24:11.996Z,10.44
2022-09-28T20:26:39.453Z,10.43
2022-09-28T20:29:07.418Z,10.41
2022-09-28T20:31:36.183Z,10.40
2022-09-28T20:34:03.669Z,10.38
2022-09-28T20:36:31.838Z,10.37
2022-09-28T20:39:02.840Z,10.35
2022-09-28T20:41:34.811Z,10.34
2022-09-28T20:44:05.434Z,10.32
2022-09-28T20:46:33.839Z,10.29
2022-09-28T20:49:01.607Z,10.29
2022-09-28T20:51:29.241Z,10.26
2022-09-28T20:53:57.368Z,10.25
2022-09-28T20:56:26.789Z,10.25
2022-09-28T20:58:54.677Z,10.24
2022-09-28T21:01:22.718Z,10.23
2022-09-28T21:03:50.766Z,10.22
2022-09-28T21:06:18.645Z,10.21
2022-09-28T21:08:46.390Z,10.20
2022-09-28T21:11:14.087Z,10.19
2022-09-28T21:13:42.941Z,10.17
2022-09-28T21:16:10.993Z,10.16
2022-09-28T21:18:38.569Z,10.14
2022-09-28T21:21:06.570Z,10.13
2022-09-28T21:23:34.154Z,10.11
2022-09-28T21:26:02.190Z,10.11
2022-09-28T21:28:29.714Z,10.08
2022-09-28T21:30:58.650Z,10.07
2022-09-28T21:33:26.165Z,10.06
2022-09-28T21:35:53.642Z,10.03
2022-09-28T21:38:21.154Z,10.03
2022-09-28T21:40:49.051Z,10.00
2022-09-28T21:43:17.124Z,9.99
2022-09-28T21:45:44.563Z,9.99
2022-09-28T21:48:13.584Z,9.98
2022-09-28T21:50:41.092Z,9.96
2022-09-28T21:53:08.758Z,9.95
2022-09-28T21:55:36.383Z,9.94
2022-09-28T21:58:03.846Z,9.92
2022-09-28T22:00:32.301Z,9.90
2022-09-28T22:03:00.062Z,9.88
2022-09-28T22:05:29.028Z,9.86
2022-09-28T22:07:56.531Z,9.86
2022-09-28T22:10:24.140Z,9.84
2022-09-28T22:12:51.638Z,9.82
2022-09-28T22:15:19.461Z,9.82
2022-09-28T22:17:47.036Z,9.82
2022-09-28T22:20:14.687Z,9.81
2022-09-28T22:22:43.693Z,9.79
2022-09-28T22:25:11.320Z,9.79
2022-09-28T22:27:40.085Z,9.77
2022-09-28T22:30:08.154Z,9.75
2022-09-28T22:32:35.728Z,9.76
2022-09-28T22:35:03.226Z,9.75
2022-09-28T22:37:32.814Z,9.74
2022-09-28T22:40:01.875Z,9.73
2022-09-28T22:42:29.356Z,9.73
2022-09-28T22:44:57.064Z,9.72
2022-09-28T22:47:24.584Z,9.73
2022-09-28T22:49:52.030Z,9.72
2022-09-28T22:52:19.713Z,9.73
2022-09-28T22:54:47.957Z,9.71
2022-09-28T22:57:16.905Z,9.72
2022-09-28T22:59:44.393Z,9.71
2022-09-28T23:02:11.962Z,9.70
2022-09-28T23:04:39.447Z,9.68
2022-09-28T23:07:06.993Z,9.68
2022-09-28T23:09:34.693Z,9.67
2022-09-28T23:12:02.372Z,9.66
2022-09-28T23:14:31.402Z,9.65
2022-09-28T23:16:59.002Z,9.64
2022-09-28T23:19:26.535Z,9.63
2022-09-28T23:21:54.472Z,9.63
2022-09-28T23:24:21.975Z,9.61
2022-09-28T23:26:49.453Z,9.60
2022-09-28T23:29:16.918Z,9.59
2022-09-28T23:31:46.067Z,9.59
2022-09-28T23:34:13.618Z,9.59
2022-09-28T23:36:41.333Z,9.58
2022-09-28T23:39:10.135Z,9.56
2022-09-28T23:41:37.592Z,9.56
2022-09-28T23:44:05.201Z,9.55
2022-09-28T23:46:32.945Z,9.53
2022-09-28T23:49:01.789Z,9.53
2022-09-28T23:51:29.564Z,9.53
2022-09-28T23:53:57.261Z,9.52
2022-09-28T23:56:24.783Z,9.52
2022-09-28T23:58:52.256Z,9.52
